sensor_id;sensor_type;location;lat;lon;timestamp;temperature;humidity
60868;DHT22;46702;48.370;10.794;2022-08-06T00:01:37;20.10;99.90
60868;DHT22;46702;48.370;10.794;2022-08-06T00:04:03;20.10;99.90
60868;DHT22;46702;48.370;10.794;2022-08-06T00:06:29;20.00;99.90
60868;DHT22;46702;48.370;10.794;2022-08-06T00:08:54;19.60;99.90
60868;DHT22;46702;48.370;10.794;2022-08-06T00:11:20;19.60;99.90
60868;DHT22;46702;48.370;10.794;2022-08-06T00:13:46;19.70;99.90
60868;DHT22;46702;48.370;10.794;2022-08-06T00:16:11;19.90;99.90
60868;DHT22;46702;48.370;10.794;2022-08-06T00:18:37;19.90;99.90
60868;DHT22;46702;48.370;10.794;2022-08-06T00:21:03;20.00;99.90
60868;DHT22;46702;48.370;10.794;2022-08-06T00:23:28;20.00;99.90
60868;DHT22;46702;48.370;10.794;2022-08-06T00:25:54;19.90;99.90
60868;DHT22;46702;48.370;10.794;2022-08-06T00:28:21;20.00;99.90
60868;DHT22;46702;48.370;10.794;2022-08-06T00:30:47;20.20;99.90
60868;DHT22;46702;48.370;10.794;2022-08-06T00:33:13;20.20;99.90
60868;DHT22;46702;48.370;10.794;2022-08-06T00:35:39;20.30;99.90
60868;DHT22;46702;48.370;10.794;2022-08-06T00:38:04;20.40;99.90
60868;DHT22;46702;48.370;10.794;2022-08-06T00:40:30;20.20;99.90
60868;DHT22;46702;48.370;10.794;2022-08-06T00:43:02;20.20;99.90
60868;DHT22;46702;48.370;10.794;2022-08-06T00:45:32;20.40;99.90
60868;DHT22;46702;48.370;10.794;2022-08-06T00:47:59;20.10;99.90
60868;DHT22;46702;48.370;10.794;2022-08-06T00:50:25;19.90;99.90
60868;DHT22;46702;48.370;10.794;2022-08-06T00:52:51;20.00;99.90
60868;DHT22;46702;48.370;10.794;2022-08-06T00:55:16;20.10;99.90
60868;DHT22;46702;48.370;10.794;2022-08-06T00:57:42;20.20;99.90
60868;DHT22;46702;48.370;10.794;2022-08-06T01:00:08;20.00;99.90
60868;DHT22;46702;48.370;10.794;2022-08-06T01:02:34;19.70;99.90
60868;DHT22;46702;48.370;10.794;2022-08-06T01:05:00;19.70;99.90
60868;DHT22;46702;48.370;10.794;2022-08-06T01:07:26;19.70;99.90
60868;DHT22;46702;48.370;10.794;2022-08-06T01:09:51;19.70;99.90
60868;DHT22;46702;48.370;10.794;2022-08-06T01:12:17;19.30;99.90
60868;DHT22;46702;48.370;10.794;2022-08-06T01:14:43;19.00;99.90
60868;DHT22;46702;48.370;10.794;2022-08-06T01:17:28;18.80;99.90
60868;DHT22;46702;48.370;10.794;2022-08-06T01:20:03;18.90;99.90
60868;DHT22;46702;48.370;10.794;2022-08-06T01:23:02;19.10;99.90
60868;DHT22;46702;48.370;10.794;2022-08-06T01:28:34;19.30;99.90
60868;DHT22;46702;48.370;10.794;2022-08-06T01:31:10;19.20;99.90
60868;DHT22;46702;48.370;10.794;2022-08-06T01:33:42;19.30;99.90
60868;DHT22;46702;48.370;10.794;2022-08-06T01:36:14;19.30;99.90
60868;DHT22;46702;48.370;10.794;2022-08-06T01:38:45;19.40;99.90
60868;DHT22;46702;48.370;10.794;2022-08-06T01:41:16;19.50;99.90
60868;DHT22;46702;48.370;10.794;2022-08-06T01:44:14;19.40;99.90
60868;DHT22;46702;48.370;10.794;2022-08-06T01:46:46;19.40;99.90
60868;DHT22;46702;48.370;10.794;2022-08-06T01:49:16;19.40;99.90
60868;DHT22;46702;48.370;10.794;2022-08-06T01:51:44;19.50;99.90
60868;DHT22;46702;48.370;10.794;2022-08-06T01:54:11;19.50;99.90
60868;DHT22;46702;48.370;10.794;2022-08-06T01:56:39;19.50;99.90
60868;DHT22;46702;48.370;10.794;2022-08-06T01:59:06;19.50;99.90
60868;DHT22;46702;48.370;10.794;2022-08-06T02:01:35;19.60;99.90
60868;DHT22;46702;48.370;10.794;2022-08-06T02:04:02;19.50;99.90
60868;DHT22;46702;48.370;10.794;2022-08-06T02:06:33;19.40;99.90
60868;DHT22;46702;48.370;10.794;2022-08-06T02:09:02;19.10;99.90
60868;DHT22;46702;48.370;10.794;2022-08-06T02:11:28;18.70;99.90
60868;DHT22;46702;48.370;10.794;2022-08-06T02:13:55;18.70;99.90
60868;DHT22;46702;48.370;10.794;2022-08-06T02:16:22;18.80;99.90
60868;DHT22;46702;48.370;10.794;2022-08-06T02:18:49;18.70;99.90
60868;DHT22;46702;48.370;10.794;2022-08-06T02:21:19;18.70;99.90
60868;DHT22;46702;48.370;10.794;2022-08-06T02:23:47;18.70;99.90
60868;DHT22;46702;48.370;10.794;2022-08-06T02:26:14;18.70;99.90
60868;DHT22;46702;48.370;10.794;2022-08-06T02:28:42;18.60;99.90
60868;DHT22;46702;48.370;10.794;2022-08-06T02:31:09;18.50;99.90
60868;DHT22;46702;48.370;10.794;2022-08-06T02:33:35;18.40;99.90
60868;DHT22;46702;48.370;10.794;2022-08-06T02:36:14;18.40;99.90
60868;DHT22;46702;48.370;10.794;2022-08-06T02:38:50;18.10;99.90
60868;DHT22;46702;48.370;10.794;2022-08-06T02:44:19;17.40;99.90
60868;DHT22;46702;48.370;10.794;2022-08-06T02:46:58;17.40;99.90
60868;DHT22;46702;48.370;10.794;2022-08-06T02:49:26;17.50;99.90
60868;DHT22;46702;48.370;10.794;2022-08-06T02:52:15;17.50;99.90
60868;DHT22;46702;48.370;10.794;2022-08-06T02:54:50;17.60;99.90
60868;DHT22;46702;48.370;10.794;2022-08-06T02:57:28;17.70;99.90
60868;DHT22;46702;48.370;10.794;2022-08-06T03:00:01;17.60;99.90
60868;DHT22;46702;48.370;10.794;2022-08-06T03:02:29;17.60;99.90
60868;DHT22;46702;48.370;10.794;2022-08-06T03:04:57;17.50;99.90
60868;DHT22;46702;48.370;10.794;2022-08-06T03:07:27;17.50;99.90
60868;DHT22;46702;48.370;10.794;2022-08-06T03:09:55;17.30;99.90
60868;DHT22;46702;48.370;10.794;2022-08-06T03:12:21;17.20;99.90
60868;DHT22;46702;48.370;10.794;2022-08-06T03:14:48;17.30;99.90
60868;DHT22;46702;48.370;10.794;2022-08-06T03:17:15;17.10;99.90
60868;DHT22;46702;48.370;10.794;2022-08-06T03:19:43;16.90;99.90
60868;DHT22;46702;48.370;10.794;2022-08-06T03:22:11;16.80;99.90
60868;DHT22;46702;48.370;10.794;2022-08-06T03:24:37;16.60;99.90
60868;DHT22;46702;48.370;10.794;2022-08-06T03:27:04;16.70;99.90
60868;DHT22;46702;48.370;10.794;2022-08-06T03:29:31;16.70;99.90
60868;DHT22;46702;48.370;10.794;2022-08-06T03:31:57;16.80;99.90
60868;DHT22;46702;48.370;10.794;2022-08-06T03:34:24;16.90;99.90
60868;DHT22;46702;48.370;10.794;2022-08-06T03:36:51;16.90;99.90
60868;DHT22;46702;48.370;10.794;2022-08-06T03:39:18;16.90;99.90
60868;DHT22;46702;48.370;10.794;2022-08-06T03:41:45;16.80;99.90
60868;DHT22;46702;48.370;10.794;2022-08-06T03:44:11;16.90;99.90
60868;DHT22;46702;48.370;10.794;2022-08-06T03:49:45;16.80;99.90
60868;DHT22;46702;48.370;10.794;2022-08-06T03:52:19;16.90;99.90
60868;DHT22;46702;48.370;10.794;2022-08-06T03:54:48;16.90;99.90
60868;DHT22;46702;48.370;10.794;2022-08-06T03:57:18;16.80;99.90
60868;DHT22;46702;48.370;10.794;2022-08-06T03:59:46;16.70;99.90
60868;DHT22;46702;48.370;10.794;2022-08-06T04:02:14;16.60;99.90
60868;DHT22;46702;48.370;10.794;2022-08-06T04:04:41;16.40;99.90
60868;DHT22;46702;48.370;10.794;2022-08-06T04:07:08;16.40;99.90
60868;DHT22;46702;48.370;10.794;2022-08-06T04:09:34;16.30;99.90
60868;DHT22;46702;48.370;10.794;2022-08-06T04:12:01;16.40;99.90
60868;DHT22;46702;48.370;10.794;2022-08-06T04:14:28;16.40;99.90
60868;DHT22;46702;48.370;10.794;2022-08-06T04:16:54;16.30;99.90
60868;DHT22;46702;48.370;10.794;2022-08-06T04:19:20;16.30;99.90
60868;DHT22;46702;48.370;10.794;2022-08-06T04:21:47;16.30;99.90
60868;DHT22;46702;48.370;10.794;2022-08-06T04:24:14;16.30;99.90
60868;DHT22;46702;48.370;10.794;2022-08-06T04:26:42;16.20;99.90
60868;DHT22;46702;48.370;10.794;2022-08-06T04:29:11;16.20;99.90
60868;DHT22;46702;48.370;10.794;2022-08-06T04:31:38;16.20;99.90
60868;DHT22;46702;48.370;10.794;2022-08-06T04:34:06;16.20;99.90
60868;DHT22;46702;48.370;10.794;2022-08-06T04:36:32;16.20;99.90
60868;DHT22;46702;48.370;10.794;2022-08-06T04:38:58;16.20;99.90
60868;DHT22;46702;48.370;10.794;2022-08-06T04:41:25;16.20;99.90
60868;DHT22;46702;48.370;10.794;2022-08-06T04:43:53;16.20;99.90
60868;DHT22;46702;48.370;10.794;2022-08-06T04:46:20;16.20;99.90
60868;DHT22;46702;48.370;10.794;2022-08-06T04:48:47;16.20;99.90
60868;DHT22;46702;48.370;10.794;2022-08-06T04:51:13;16.20;99.90
60868;DHT22;46702;48.370;10.794;2022-08-06T04:53:40;16.20;99.90
60868;DHT22;46702;48.370;10.794;2022-08-06T04:56:07;16.20;99.90
60868;DHT22;46702;48.370;10.794;2022-08-06T04:58:33;16.20;99.90
60868;DHT22;46702;48.370;10.794;2022-08-06T05:01:00;16.20;99.90
60868;DHT22;46702;48.370;10.794;2022-08-06T05:03:26;16.20;99.90
60868;DHT22;46702;48.370;10.794;2022-08-06T05:06:00;16.20;99.90
60868;DHT22;46702;48.370;10.794;2022-08-06T05:08:29;16.20;99.90
60868;DHT22;46702;48.370;10.794;2022-08-06T05:11:09;16.10;99.90
60868;DHT22;46702;48.370;10.794;2022-08-06T05:13:39;16.10;99.90
60868;DHT22;46702;48.370;10.794;2022-08-06T05:16:08;16.10;99.90
60868;DHT22;46702;48.370;10.794;2022-08-06T05:18:45;16.20;99.90
60868;DHT22;46702;48.370;10.794;2022-08-06T05:21:18;16.20;99.90
60868;DHT22;46702;48.370;10.794;2022-08-06T05:23:47;16.20;99.90
60868;DHT22;46702;48.370;10.794;2022-08-06T05:26:14;16.20;99.90
60868;DHT22;46702;48.370;10.794;2022-08-06T05:28:40;16.10;99.90
60868;DHT22;46702;48.370;10.794;2022-08-06T05:31:07;16.10;99.90
60868;DHT22;46702;48.370;10.794;2022-08-06T05:33:35;16.10;99.90
60868;DHT22;46702;48.370;10.794;2022-08-06T05:36:09;16.10;99.90
60868;DHT22;46702;48.370;10.794;2022-08-06T05:38:40;16.10;99.90
60868;DHT22;46702;48.370;10.794;2022-08-06T05:41:10;16.00;99.90
60868;DHT22;46702;48.370;10.794;2022-08-06T05:43:40;16.00;99.90
60868;DHT22;46702;48.370;10.794;2022-08-06T05:46:11;16.10;99.90
60868;DHT22;46702;48.370;10.794;2022-08-06T05:48:42;16.00;99.90
60868;DHT22;46702;48.370;10.794;2022-08-06T05:51:55;16.00;99.90
60868;DHT22;46702;48.370;10.794;2022-08-06T05:54:18;16.00;99.90
60868;DHT22;46702;48.370;10.794;2022-08-06T05:56:48;16.00;99.90
60868;DHT22;46702;48.370;10.794;2022-08-06T05:59:21;16.00;99.90
60868;DHT22;46702;48.370;10.794;2022-08-06T06:01:49;16.00;99.90
60868;DHT22;46702;48.370;10.794;2022-08-06T06:04:16;16.00;99.90
60868;DHT22;46702;48.370;10.794;2022-08-06T06:06:43;16.00;99.90
60868;DHT22;46702;48.370;10.794;2022-08-06T06:09:09;16.00;99.90
60868;DHT22;46702;48.370;10.794;2022-08-06T06:11:36;16.00;99.90
60868;DHT22;46702;48.370;10.794;2022-08-06T06:14:03;16.00;99.90
60868;DHT22;46702;48.370;10.794;2022-08-06T06:16:58;15.90;99.90
60868;DHT22;46702;48.370;10.794;2022-08-06T06:19:43;15.80;99.90
60868;DHT22;46702;48.370;10.794;2022-08-06T06:22:31;15.80;99.90
60868;DHT22;46702;48.370;10.794;2022-08-06T06:25:13;15.80;99.90
60868;DHT22;46702;48.370;10.794;2022-08-06T06:28:02;15.90;99.90
60868;DHT22;46702;48.370;10.794;2022-08-06T06:30:51;15.80;99.90
60868;DHT22;46702;48.370;10.794;2022-08-06T06:33:37;15.80;99.90
60868;DHT22;46702;48.370;10.794;2022-08-06T06:36:15;15.80;99.90
60868;DHT22;46702;48.370;10.794;2022-08-06T06:38:59;15.70;99.90
60868;DHT22;46702;48.370;10.794;2022-08-06T06:45:21;15.70;99.90
60868;DHT22;46702;48.370;10.794;2022-08-06T06:50:32;15.60;99.90
60868;DHT22;46702;48.370;10.794;2022-08-06T06:52:58;15.70;99.90
60868;DHT22;46702;48.370;10.794;2022-08-06T06:55:38;15.70;99.90
60868;DHT22;46702;48.370;10.794;2022-08-06T06:58:14;15.70;99.90
60868;DHT22;46702;48.370;10.794;2022-08-06T07:00:41;15.70;99.90
60868;DHT22;46702;48.370;10.794;2022-08-06T07:03:08;15.80;99.90
60868;DHT22;46702;48.370;10.794;2022-08-06T07:05:36;15.80;99.90
60868;DHT22;46702;48.370;10.794;2022-08-06T07:08:03;15.70;99.90
60868;DHT22;46702;48.370;10.794;2022-08-06T07:10:30;15.70;99.90
60868;DHT22;46702;48.370;10.794;2022-08-06T07:12:57;15.70;99.90
60868;DHT22;46702;48.370;10.794;2022-08-06T07:15:23;15.80;99.90
60868;DHT22;46702;48.370;10.794;2022-08-06T07:17:50;15.80;99.90
60868;DHT22;46702;48.370;10.794;2022-08-06T07:20:22;15.80;99.90
60868;DHT22;46702;48.370;10.794;2022-08-06T07:22:47;15.70;99.90
60868;DHT22;46702;48.370;10.794;2022-08-06T07:25:14;15.70;99.90
60868;DHT22;46702;48.370;10.794;2022-08-06T07:27:44;15.70;99.90
60868;DHT22;46702;48.370;10.794;2022-08-06T07:30:16;15.70;99.90
60868;DHT22;46702;48.370;10.794;2022-08-06T07:32:44;15.70;99.90
60868;DHT22;46702;48.370;10.794;2022-08-06T07:35:11;15.80;99.90
60868;DHT22;46702;48.370;10.794;2022-08-06T07:37:40;15.80;99.90
60868;DHT22;46702;48.370;10.794;2022-08-06T07:40:08;15.80;99.90
60868;DHT22;46702;48.370;10.794;2022-08-06T07:42:37;15.90;99.90
60868;DHT22;46702;48.370;10.794;2022-08-06T07:45:03;15.80;99.90
60868;DHT22;46702;48.370;10.794;2022-08-06T07:47:39;15.80;99.90
60868;DHT22;46702;48.370;10.794;2022-08-06T07:50:07;15.80;99.90
60868;DHT22;46702;48.370;10.794;2022-08-06T07:52:35;15.80;99.90
60868;DHT22;46702;48.370;10.794;2022-08-06T07:55:04;15.80;99.90
60868;DHT22;46702;48.370;10.794;2022-08-06T07:57:30;15.80;99.90
60868;DHT22;46702;48.370;10.794;2022-08-06T07:59:57;15.80;99.90
60868;DHT22;46702;48.370;10.794;2022-08-06T08:02:24;15.80;99.90
60868;DHT22;46702;48.370;10.794;2022-08-06T08:04:50;15.80;99.90
60868;DHT22;46702;48.370;10.794;2022-08-06T08:07:34;15.80;99.90
60868;DHT22;46702;48.370;10.794;2022-08-06T08:10:01;15.70;99.90
60868;DHT22;46702;48.370;10.794;2022-08-06T08:12:27;15.80;99.90
60868;DHT22;46702;48.370;10.794;2022-08-06T08:14:53;15.80;99.90
60868;DHT22;46702;48.370;10.794;2022-08-06T08:17:19;15.70;99.90
60868;DHT22;46702;48.370;10.794;2022-08-06T08:19:44;15.70;99.90
60868;DHT22;46702;48.370;10.794;2022-08-06T08:22:12;15.70;99.90
60868;DHT22;46702;48.370;10.794;2022-08-06T08:24:43;15.60;99.90
60868;DHT22;46702;48.370;10.794;2022-08-06T08:27:10;15.60;99.90
60868;DHT22;46702;48.370;10.794;2022-08-06T08:29:40;15.70;99.90
60868;DHT22;46702;48.370;10.794;2022-08-06T08:32:08;15.70;99.90
60868;DHT22;46702;48.370;10.794;2022-08-06T08:34:34;15.70;99.90
60868;DHT22;46702;48.370;10.794;2022-08-06T08:37:01;15.80;99.90
60868;DHT22;46702;48.370;10.794;2022-08-06T08:39:27;15.80;99.90
60868;DHT22;46702;48.370;10.794;2022-08-06T08:42:09;15.80;99.90
60868;DHT22;46702;48.370;10.794;2022-08-06T08:44:36;15.80;99.90
60868;DHT22;46702;48.370;10.794;2022-08-06T08:47:03;15.80;99.90
60868;DHT22;46702;48.370;10.794;2022-08-06T08:52:07;15.80;99.90
60868;DHT22;46702;48.370;10.794;2022-08-06T08:54:35;15.90;99.90
60868;DHT22;46702;48.370;10.794;2022-08-06T08:57:03;15.90;99.90
60868;DHT22;46702;48.370;10.794;2022-08-06T08:59:29;15.80;99.90
60868;DHT22;46702;48.370;10.794;2022-08-06T09:01:56;15.90;99.90
60868;DHT22;46702;48.370;10.794;2022-08-06T09:04:22;16.00;99.90
60868;DHT22;46702;48.370;10.794;2022-08-06T09:06:48;16.00;99.90
60868;DHT22;46702;48.370;10.794;2022-08-06T09:09:14;16.00;99.90
60868;DHT22;46702;48.370;10.794;2022-08-06T09:11:40;16.10;99.90
60868;DHT22;46702;48.370;10.794;2022-08-06T09:14:07;16.10;99.90
60868;DHT22;46702;48.370;10.794;2022-08-06T09:16:35;16.10;99.90
60868;DHT22;46702;48.370;10.794;2022-08-06T09:19:03;16.10;99.90
60868;DHT22;46702;48.370;10.794;2022-08-06T09:21:29;16.10;99.90
60868;DHT22;46702;48.370;10.794;2022-08-06T09:23:55;16.10;99.90
60868;DHT22;46702;48.370;10.794;2022-08-06T09:26:21;16.10;99.90
60868;DHT22;46702;48.370;10.794;2022-08-06T09:28:47;16.10;99.90
60868;DHT22;46702;48.370;10.794;2022-08-06T09:31:18;16.20;99.90
60868;DHT22;46702;48.370;10.794;2022-08-06T09:36:22;16.20;99.90
60868;DHT22;46702;48.370;10.794;2022-08-06T09:38:49;16.30;99.90
60868;DHT22;46702;48.370;10.794;2022-08-06T09:41:18;16.30;99.90
60868;DHT22;46702;48.370;10.794;2022-08-06T09:43:45;16.30;99.90
60868;DHT22;46702;48.370;10.794;2022-08-06T09:46:12;16.40;99.90
60868;DHT22;46702;48.370;10.794;2022-08-06T09:48:58;16.50;99.90
60868;DHT22;46702;48.370;10.794;2022-08-06T09:51:25;16.50;99.90
60868;DHT22;46702;48.370;10.794;2022-08-06T09:53:56;16.50;99.90
60868;DHT22;46702;48.370;10.794;2022-08-06T09:56:22;16.60;99.90
60868;DHT22;46702;48.370;10.794;2022-08-06T09:58:48;16.70;99.90
60868;DHT22;46702;48.370;10.794;2022-08-06T10:01:19;16.70;99.90
60868;DHT22;46702;48.370;10.794;2022-08-06T10:03:45;16.70;99.90
60868;DHT22;46702;48.370;10.794;2022-08-06T10:06:14;16.70;99.90
60868;DHT22;46702;48.370;10.794;2022-08-06T10:08:41;16.70;99.90
60868;DHT22;46702;48.370;10.794;2022-08-06T10:11:07;16.80;99.90
60868;DHT22;46702;48.370;10.794;2022-08-06T10:13:33;16.80;99.90
60868;DHT22;46702;48.370;10.794;2022-08-06T10:16:01;16.90;99.90
60868;DHT22;46702;48.370;10.794;2022-08-06T10:18:40;16.90;99.90
60868;DHT22;46702;48.370;10.794;2022-08-06T10:21:11;17.00;99.90
60868;DHT22;46702;48.370;10.794;2022-08-06T10:23:39;17.00;99.90
60868;DHT22;46702;48.370;10.794;2022-08-06T10:26:09;17.00;99.90
60868;DHT22;46702;48.370;10.794;2022-08-06T10:28:41;17.00;99.90
60868;DHT22;46702;48.370;10.794;2022-08-06T10:31:12;17.00;99.90
60868;DHT22;46702;48.370;10.794;2022-08-06T10:33:55;17.00;99.90
60868;DHT22;46702;48.370;10.794;2022-08-06T10:36:26;17.00;99.90
60868;DHT22;46702;48.370;10.794;2022-08-06T10:38:54;17.00;99.90
60868;DHT22;46702;48.370;10.794;2022-08-06T10:41:22;17.10;99.90
60868;DHT22;46702;48.370;10.794;2022-08-06T10:43:48;17.00;99.90
60868;DHT22;46702;48.370;10.794;2022-08-06T10:46:15;17.10;99.90
60868;DHT22;46702;48.370;10.794;2022-08-06T10:48:45;17.10;99.90
60868;DHT22;46702;48.370;10.794;2022-08-06T10:51:13;17.10;99.90
60868;DHT22;46702;48.370;10.794;2022-08-06T10:53:44;17.20;99.90
60868;DHT22;46702;48.370;10.794;2022-08-06T10:56:15;17.10;99.90
60868;DHT22;46702;48.370;10.794;2022-08-06T10:58:42;17.20;99.90
60868;DHT22;46702;48.370;10.794;2022-08-06T11:04:42;17.40;99.90
60868;DHT22;46702;48.370;10.794;2022-08-06T11:15:46;17.70;99.90
60868;DHT22;46702;48.370;10.794;2022-08-06T11:18:12;17.70;99.90
60868;DHT22;46702;48.370;10.794;2022-08-06T11:20:43;17.80;99.90
60868;DHT22;46702;48.370;10.794;2022-08-06T11:25:43;18.30;99.90
60868;DHT22;46702;48.370;10.794;2022-08-06T11:28:11;18.50;99.90
60868;DHT22;46702;48.370;10.794;2022-08-06T11:33:03;18.70;99.90
60868;DHT22;46702;48.370;10.794;2022-08-06T11:35:38;18.60;99.90
60868;DHT22;46702;48.370;10.794;2022-08-06T11:38:08;18.70;99.90
60868;DHT22;46702;48.370;10.794;2022-08-06T11:40:57;18.60;99.90
60868;DHT22;46702;48.370;10.794;2022-08-06T11:44:03;18.70;99.90
60868;DHT22;46702;48.370;10.794;2022-08-06T11:46:35;19.00;99.90
60868;DHT22;46702;48.370;10.794;2022-08-06T11:51:47;19.50;99.90
60868;DHT22;46702;48.370;10.794;2022-08-06T11:59:31;19.30;99.90
60868;DHT22;46702;48.370;10.794;2022-08-06T12:01:58;19.30;99.90
60868;DHT22;46702;48.370;10.794;2022-08-06T12:04:40;19.20;99.90
60868;DHT22;46702;48.370;10.794;2022-08-06T12:07:21;19.20;99.90
60868;DHT22;46702;48.370;10.794;2022-08-06T12:12:41;19.30;99.90
60868;DHT22;46702;48.370;10.794;2022-08-06T12:17:55;19.60;99.90
60868;DHT22;46702;48.370;10.794;2022-08-06T12:23:05;19.70;99.90
60868;DHT22;46702;48.370;10.794;2022-08-06T12:25:31;19.60;99.90
60868;DHT22;46702;48.370;10.794;2022-08-06T12:27:58;19.70;99.90
60868;DHT22;46702;48.370;10.794;2022-08-06T12:30:24;19.80;99.90
60868;DHT22;46702;48.370;10.794;2022-08-06T12:32:59;19.80;99.90
60868;DHT22;46702;48.370;10.794;2022-08-06T12:35:25;19.90;99.90
60868;DHT22;46702;48.370;10.794;2022-08-06T12:37:51;20.10;99.90
60868;DHT22;46702;48.370;10.794;2022-08-06T12:40:19;20.20;99.40
60868;DHT22;46702;48.370;10.794;2022-08-06T12:45:27;20.20;99.40
60868;DHT22;46702;48.370;10.794;2022-08-06T12:48:09;20.30;99.10
60868;DHT22;46702;48.370;10.794;2022-08-06T12:50:38;20.30;99.90
60868;DHT22;46702;48.370;10.794;2022-08-06T12:53:10;20.40;96.80
60868;DHT22;46702;48.370;10.794;2022-08-06T12:55:50;20.40;97.40
60868;DHT22;46702;48.370;10.794;2022-08-06T12:58:20;20.40;95.70
60868;DHT22;46702;48.370;10.794;2022-08-06T13:00:52;20.50;97.10
60868;DHT22;46702;48.370;10.794;2022-08-06T13:03:21;20.70;97.10
60868;DHT22;46702;48.370;10.794;2022-08-06T13:05:48;20.80;95.50
60868;DHT22;46702;48.370;10.794;2022-08-06T13:08:14;20.80;95.70
60868;DHT22;46702;48.370;10.794;2022-08-06T13:10:51;20.80;93.10
60868;DHT22;46702;48.370;10.794;2022-08-06T13:13:18;20.90;95.10
60868;DHT22;46702;48.370;10.794;2022-08-06T13:16:11;21.00;92.70
60868;DHT22;46702;48.370;10.794;2022-08-06T13:18:38;21.00;93.80
60868;DHT22;46702;48.370;10.794;2022-08-06T13:21:15;21.30;93.80
60868;DHT22;46702;48.370;10.794;2022-08-06T13:23:46;21.30;92.70
60868;DHT22;46702;48.370;10.794;2022-08-06T13:26:25;21.40;93.00
60868;DHT22;46702;48.370;10.794;2022-08-06T13:29:07;21.50;90.50
60868;DHT22;46702;48.370;10.794;2022-08-06T13:31:38;21.40;91.60
60868;DHT22;46702;48.370;10.794;2022-08-06T13:34:12;21.30;90.40
60868;DHT22;46702;48.370;10.794;2022-08-06T13:36:40;21.20;90.60
60868;DHT22;46702;48.370;10.794;2022-08-06T13:41:45;21.20;91.80
60868;DHT22;46702;48.370;10.794;2022-08-06T13:44:33;21.30;88.00
60868;DHT22;46702;48.370;10.794;2022-08-06T13:47:01;21.40;84.50
60868;DHT22;46702;48.370;10.794;2022-08-06T13:49:27;21.30;84.30
60868;DHT22;46702;48.370;10.794;2022-08-06T13:51:53;21.40;91.30
60868;DHT22;46702;48.370;10.794;2022-08-06T13:54:19;21.40;91.30
60868;DHT22;46702;48.370;10.794;2022-08-06T13:56:46;21.30;91.10
60868;DHT22;46702;48.370;10.794;2022-08-06T13:59:12;21.30;91.40
60868;DHT22;46702;48.370;10.794;2022-08-06T14:01:41;21.30;91.40
60868;DHT22;46702;48.370;10.794;2022-08-06T14:04:07;21.30;91.50
60868;DHT22;46702;48.370;10.794;2022-08-06T14:06:32;21.40;89.80
60868;DHT22;46702;48.370;10.794;2022-08-06T14:08:58;21.50;85.40
60868;DHT22;46702;48.370;10.794;2022-08-06T14:11:25;21.40;87.20
60868;DHT22;46702;48.370;10.794;2022-08-06T14:13:51;21.40;84.00
60868;DHT22;46702;48.370;10.794;2022-08-06T14:16:17;21.40;87.60
60868;DHT22;46702;48.370;10.794;2022-08-06T14:18:43;21.50;81.60
60868;DHT22;46702;48.370;10.794;2022-08-06T14:21:08;21.50;89.90
60868;DHT22;46702;48.370;10.794;2022-08-06T14:23:34;21.50;85.90
60868;DHT22;46702;48.370;10.794;2022-08-06T14:26:00;21.40;84.80
60868;DHT22;46702;48.370;10.794;2022-08-06T14:28:27;21.40;82.60
60868;DHT22;46702;48.370;10.794;2022-08-06T14:30:52;21.40;81.20
60868;DHT22;46702;48.370;10.794;2022-08-06T14:33:18;21.50;80.10
60868;DHT22;46702;48.370;10.794;2022-08-06T14:35:44;21.40;80.80
60868;DHT22;46702;48.370;10.794;2022-08-06T14:38:10;21.50;82.40
60868;DHT22;46702;48.370;10.794;2022-08-06T14:40:38;21.70;84.50
60868;DHT22;46702;48.370;10.794;2022-08-06T14:43:22;21.60;83.10
60868;DHT22;46702;48.370;10.794;2022-08-06T14:46:06;21.60;86.70
60868;DHT22;46702;48.370;10.794;2022-08-06T14:48:32;21.50;84.50
60868;DHT22;46702;48.370;10.794;2022-08-06T14:50:58;21.40;82.80
60868;DHT22;46702;48.370;10.794;2022-08-06T14:53:24;21.40;81.90
60868;DHT22;46702;48.370;10.794;2022-08-06T14:55:49;21.50;89.30
60868;DHT22;46702;48.370;10.794;2022-08-06T14:58:15;21.40;86.20
60868;DHT22;46702;48.370;10.794;2022-08-06T15:00:40;21.50;80.60
60868;DHT22;46702;48.370;10.794;2022-08-06T15:03:06;21.60;80.60
60868;DHT22;46702;48.370;10.794;2022-08-06T15:05:32;21.70;78.30
60868;DHT22;46702;48.370;10.794;2022-08-06T15:08:00;21.60;83.20
60868;DHT22;46702;48.370;10.794;2022-08-06T15:10:26;21.70;83.00
60868;DHT22;46702;48.370;10.794;2022-08-06T15:12:52;21.60;79.50
60868;DHT22;46702;48.370;10.794;2022-08-06T15:15:17;21.60;80.00
60868;DHT22;46702;48.370;10.794;2022-08-06T15:17:43;21.50;82.50
60868;DHT22;46702;48.370;10.794;2022-08-06T15:20:09;21.60;80.90
60868;DHT22;46702;48.370;10.794;2022-08-06T15:22:35;21.60;86.50
60868;DHT22;46702;48.370;10.794;2022-08-06T15:25:00;21.60;83.30
60868;DHT22;46702;48.370;10.794;2022-08-06T15:27:26;21.70;83.10
60868;DHT22;46702;48.370;10.794;2022-08-06T15:29:51;21.80;80.20
60868;DHT22;46702;48.370;10.794;2022-08-06T15:32:17;21.80;80.80
60868;DHT22;46702;48.370;10.794;2022-08-06T15:34:43;21.80;80.00
60868;DHT22;46702;48.370;10.794;2022-08-06T15:37:08;21.80;81.50
60868;DHT22;46702;48.370;10.794;2022-08-06T15:39:34;21.90;79.90
60868;DHT22;46702;48.370;10.794;2022-08-06T15:42:00;21.90;79.60
60868;DHT22;46702;48.370;10.794;2022-08-06T15:44:26;21.80;77.00
60868;DHT22;46702;48.370;10.794;2022-08-06T15:46:52;21.70;78.90
60868;DHT22;46702;48.370;10.794;2022-08-06T15:49:18;21.80;77.10
60868;DHT22;46702;48.370;10.794;2022-08-06T15:51:44;21.70;80.80
60868;DHT22;46702;48.370;10.794;2022-08-06T15:54:10;21.70;77.50
60868;DHT22;46702;48.370;10.794;2022-08-06T15:56:36;21.70;76.80
60868;DHT22;46702;48.370;10.794;2022-08-06T15:59:02;21.70;81.60
60868;DHT22;46702;48.370;10.794;2022-08-06T16:01:29;21.70;78.00
60868;DHT22;46702;48.370;10.794;2022-08-06T16:03:55;21.70;83.30
60868;DHT22;46702;48.370;10.794;2022-08-06T16:06:21;21.80;80.00
60868;DHT22;46702;48.370;10.794;2022-08-06T16:08:46;21.90;78.30
60868;DHT22;46702;48.370;10.794;2022-08-06T16:11:12;21.90;77.20
60868;DHT22;46702;48.370;10.794;2022-08-06T16:13:38;22.00;78.60
60868;DHT22;46702;48.370;10.794;2022-08-06T16:16:05;22.10;79.50
60868;DHT22;46702;48.370;10.794;2022-08-06T16:18:31;22.10;81.50
60868;DHT22;46702;48.370;10.794;2022-08-06T16:20:59;22.30;81.40
60868;DHT22;46702;48.370;10.794;2022-08-06T16:23:25;22.50;77.30
60868;DHT22;46702;48.370;10.794;2022-08-06T16:25:51;22.40;74.50
60868;DHT22;46702;48.370;10.794;2022-08-06T16:28:17;22.20;71.90